createdAt,value
2017-12-02T00:00:41.321Z,0
2017-12-02T00:01:49.858Z,0
2017-12-02T00:02:59.192Z,0
2017-12-02T00:04:07.991Z,0
2017-12-02T00:05:16.524Z,0
2017-12-02T00:06:25.064Z,0
2017-12-02T00:07:33.594Z,0
2017-12-02T00:08:42.129Z,0
2017-12-02T00:09:51.245Z,0
2017-12-02T00:11:00.045Z,0
2017-12-02T00:12:08.855Z,0
2017-12-02T00:13:17.386Z,0
2017-12-02T00:14:26.187Z,0
2017-12-02T00:15:35.261Z,0
2017-12-02T00:16:43.793Z,0
2017-12-02T00:17:52.597Z,0
2017-12-02T00:19:01.396Z,0
2017-12-02T00:20:09.931Z,0
2017-12-02T00:21:18.469Z,0
2017-12-02T00:22:27.267Z,0
2017-12-02T00:23:36.343Z,0
2017-12-02T00:24:45.143Z,0
2017-12-02T00:25:54.219Z,0
2017-12-02T00:27:02.754Z,0
2017-12-02T00:28:11.288Z,0
2017-12-02T00:29:19.821Z,0
2017-12-02T00:30:28.621Z,0
2017-12-02T00:31:37.154Z,0
2017-12-02T00:32:45.957Z,0
2017-12-02T00:33:54.494Z,0
2017-12-02T00:35:03.296Z,0
2017-12-02T00:36:12.108Z,0
2017-12-02T00:37:20.907Z,0
2017-12-02T00:38:29.971Z,0
2017-12-02T00:39:39.042Z,0
2017-12-02T00:40:47.842Z,0
2017-12-02T00:41:56.642Z,0
2017-12-02T00:43:05.452Z,0
2017-12-02T00:44:13.986Z,0
2017-12-02T00:45:23.055Z,0
2017-12-02T00:46:31.854Z,0
2017-12-02T00:47:40.923Z,0
2017-12-02T00:48:49.454Z,0
2017-12-02T00:49:57.988Z,0
2017-12-02T00:51:06.523Z,0
2017-12-02T00:52:15.058Z,0
2017-12-02T00:53:24.309Z,0
2017-12-02T00:54:32.839Z,0
2017-12-02T00:55:41.638Z,0
2017-12-02T00:56:50.178Z,0
2017-12-02T00:57:58.706Z,0
2017-12-02T00:59:07.515Z,0
2017-12-02T01:00:16.048Z,0
2017-12-02T01:01:24.849Z,0
2017-12-02T01:02:33.653Z,0
2017-12-02T01:03:42.459Z,0
2017-12-02T01:04:51.262Z,0
2017-12-02T01:05:59.796Z,0
2017-12-02T01:07:08.883Z,0
2017-12-02T01:08:17.413Z,0
2017-12-02T01:09:26.535Z,0
2017-12-02T01:10:35.070Z,0
2017-12-02T01:11:43.603Z,0
2017-12-02T01:12:52.410Z,0
2017-12-02T01:14:01.209Z,0
2017-12-02T01:15:10.025Z,0
2017-12-02T01:16:18.559Z,0
2017-12-02T01:17:27.369Z,0
2017-12-02T01:18:35.899Z,0
2017-12-02T01:19:44.966Z,0
2017-12-02T01:20:53.503Z,0
2017-12-02T01:22:02.035Z,0
2017-12-02T01:23:10.837Z,0
2017-12-02T01:24:20.173Z,0
2017-12-02T01:25:28.972Z,0
2017-12-02T01:26:37.772Z,0
2017-12-02T01:27:46.575Z,0
2017-12-02T01:28:55.377Z,0
2017-12-02T01:30:04.176Z,0
2017-12-02T01:31:12.978Z,0
2017-12-02T01:32:22.060Z,0
2017-12-02T01:33:31.155Z,0
2017-12-02T01:34:39.689Z,0
2017-12-02T01:35:48.225Z,0
2017-12-02T01:36:57.291Z,0
2017-12-02T01:38:06.091Z,0
2017-12-02T01:39:14.626Z,0
2017-12-02T01:40:23.430Z,0
2017-12-02T01:41:31.964Z,0
2017-12-02T01:42:41.036Z,0
2017-12-02T01:43:49.838Z,0
2017-12-02T01:44:58.904Z,0
2017-12-02T01:46:07.712Z,0
2017-12-02T01:47:16.514Z,0
2017-12-02T01:48:25.324Z,0
2017-12-02T01:49:34.716Z,0
2017-12-02T01:50:43.253Z,0
2017-12-02T01:51:52.319Z,0
2017-12-02T01:53:00.848Z,0
2017-12-02T01:54:09.647Z,0
2017-12-02T01:55:18.453Z,0
2017-12-02T01:56:27.527Z,0
2017-12-02T01:57:36.596Z,0
2017-12-02T01:58:45.131Z,0
2017-12-02T01:59:53.669Z,0
2017-12-02T02:01:02.226Z,0
2017-12-02T02:02:11.278Z,0
2017-12-02T02:03:20.086Z,0
2017-12-02T02:04:28.890Z,0
2017-12-02T02:05:37.738Z,0
2017-12-02T02:06:46.759Z,0
2017-12-02T02:07:55.294Z,0
2017-12-02T02:09:04.093Z,0
2017-12-02T02:10:12.626Z,0
2017-12-02T02:11:21.442Z,0
2017-12-02T02:12:30.518Z,0
2017-12-02T02:13:39.322Z,0
2017-12-02T02:14:48.124Z,0
2017-12-02T02:15:56.655Z,0
2017-12-02T02:17:05.458Z,0
2017-12-02T02:18:13.991Z,0
2017-12-02T02:19:23.059Z,0
2017-12-02T02:20:32.129Z,0
2017-12-02T02:21:40.936Z,0
2017-12-02T02:22:50.004Z,0
2017-12-02T02:23:58.542Z,0
2017-12-02T02:25:07.347Z,0
2017-12-02T02:26:16.425Z,0
2017-12-02T02:27:25.224Z,0
2017-12-02T02:28:34.024Z,0
2017-12-02T02:29:42.824Z,0
2017-12-02T02:30:51.892Z,0
2017-12-02T02:32:00.697Z,0
2017-12-02T02:33:09.504Z,0
2017-12-02T02:34:18.039Z,0
2017-12-02T02:35:26.575Z,0
2017-12-02T02:36:35.385Z,0
2017-12-02T02:37:44.195Z,0
2017-12-02T02:38:52.996Z,0
2017-12-02T02:40:01.530Z,0
2017-12-02T02:41:10.596Z,0
2017-12-02T02:42:19.129Z,0
2017-12-02T02:43:27.661Z,0
2017-12-02T02:44:36.476Z,0
2017-12-02T02:45:45.012Z,0
2017-12-02T02:46:53.546Z,0
2017-12-02T02:48:02.347Z,0
2017-12-02T02:49:11.689Z,0
2017-12-02T02:50:20.230Z,0
2017-12-02T02:51:29.028Z,0
2017-12-02T02:52:37.562Z,0
2017-12-02T02:53:46.094Z,0
2017-12-02T02:54:54.900Z,0
2017-12-02T02:56:03.971Z,0
2017-12-02T02:57:12.506Z,0
2017-12-02T02:58:21.306Z,0
2017-12-02T02:59:29.839Z,0
2017-12-02T03:00:38.915Z,0
2017-12-02T03:01:47.715Z,0
2017-12-02T03:02:56.254Z,0
2017-12-02T03:04:05.322Z,0
2017-12-02T03:05:13.856Z,0
2017-12-02T03:06:22.930Z,0
2017-12-02T03:07:31.462Z,0
2017-12-02T03:08:40.262Z,0
2017-12-02T03:09:49.325Z,0
2017-12-02T03:10:57.863Z,0
2017-12-02T03:12:06.725Z,0
2017-12-02T03:13:15.270Z,0
2017-12-02T03:14:24.072Z,0
2017-12-02T03:15:32.604Z,0
2017-12-02T03:16:41.406Z,0
2017-12-02T03:17:49.941Z,0
2017-12-02T03:18:59.009Z,0
2017-12-02T03:20:08.078Z,0
2017-12-02T03:21:16.883Z,0
2017-12-02T03:22:25.418Z,0
2017-12-02T03:23:34.754Z,0
2017-12-02T03:24:44.219Z,0
2017-12-02T03:25:53.292Z,0
2017-12-02T03:27:01.828Z,0
2017-12-02T03:28:11.164Z,0
2017-12-02T03:29:19.697Z,0
2017-12-02T03:30:28.514Z,0
2017-12-02T03:31:37.324Z,0
2017-12-02T03:32:46.662Z,0
2017-12-02T03:33:55.197Z,0
2017-12-02T03:35:03.730Z,0
2017-12-02T03:36:12.266Z,0
2017-12-02T03:37:21.343Z,0
2017-12-02T03:38:29.878Z,0
2017-12-02T03:39:38.413Z,0
2017-12-02T03:40:47.210Z,0
2017-12-02T03:41:56.011Z,0
2017-12-02T03:43:05.083Z,0
2017-12-02T03:44:13.618Z,0
2017-12-02T03:45:22.420Z,0
2017-12-02T03:46:31.759Z,0
2017-12-02T03:47:40.556Z,0
2017-12-02T03:48:49.357Z,0
2017-12-02T03:49:58.171Z,0
2017-12-02T03:51:07.509Z,0
2017-12-02T03:52:16.045Z,0
2017-12-02T03:53:25.118Z,0
2017-12-02T03:54:33.650Z,0
2017-12-02T03:55:42.447Z,0
2017-12-02T03:56:50.982Z,0
2017-12-02T03:57:59.786Z,0
2017-12-02T03:59:08.589Z,0
2017-12-02T04:00:17.924Z,0
2017-12-02T04:01:26.459Z,0
2017-12-02T04:02:34.993Z,0
2017-12-02T04:03:43.526Z,0
2017-12-02T04:04:52.648Z,0
2017-12-02T04:06:01.187Z,0
2017-12-02T04:07:10.259Z,0
2017-12-02T04:08:19.331Z,0
2017-12-02T04:09:28.134Z,0
2017-12-02T04:10:37.202Z,0
2017-12-02T04:11:46.003Z,0
2017-12-02T04:12:54.535Z,0
2017-12-02T04:14:03.340Z,0
2017-12-02T04:15:12.684Z,0
2017-12-02T04:16:21.485Z,0
2017-12-02T04:17:30.017Z,0
2017-12-02T04:18:38.552Z,0
2017-12-02T04:19:47.086Z,0
2017-12-02T04:20:55.884Z,0
2017-12-02T04:22:04.685Z,0
2017-12-02T04:23:13.487Z,0
2017-12-02T04:24:22.284Z,0
2017-12-02T04:25:31.710Z,0
2017-12-02T04:26:40.514Z,0
2017-12-02T04:27:49.582Z,0
2017-12-02T04:28:58.121Z,0
2017-12-02T04:30:06.921Z,0
2017-12-02T04:31:15.453Z,0
2017-12-02T04:32:23.985Z,0
2017-12-02T04:33:33.056Z,0
2017-12-02T04:34:41.890Z,0
2017-12-02T04:35:50.420Z,0
2017-12-02T04:36:58.954Z,0
2017-12-02T04:38:07.752Z,0
2017-12-02T04:39:16.818Z,0
2017-12-02T04:40:25.885Z,0
2017-12-02T04:41:34.688Z,0
2017-12-02T04:42:43.487Z,0
2017-12-02T04:43:52.293Z,0
2017-12-02T04:45:01.096Z,0
2017-12-02T04:46:10.166Z,0
2017-12-02T04:47:19.234Z,0
2017-12-02T04:48:28.033Z,0
2017-12-02T04:49:37.113Z,0
2017-12-02T04:50:45.907Z,0
2017-12-02T04:51:54.712Z,0
2017-12-02T04:53:03.512Z,0
2017-12-02T04:54:12.313Z,0
2017-12-02T04:55:21.655Z,0
2017-12-02T04:56:30.456Z,0
2017-12-02T04:57:39.253Z,0
2017-12-02T04:58:47.789Z,0
2017-12-02T04:59:56.593Z,0
2017-12-02T05:01:05.665Z,0
2017-12-02T05:02:14.464Z,0
2017-12-02T05:03:23.801Z,0
2017-12-02T05:04:32.599Z,0
2017-12-02T05:05:41.404Z,0
2017-12-02T05:06:50.474Z,0
2017-12-02T05:07:59.282Z,0
2017-12-02T05:09:08.348Z,0
2017-12-02T05:10:17.160Z,0
2017-12-02T05:11:25.694Z,0
2017-12-02T05:12:34.768Z,0
2017-12-02T05:13:43.297Z,0
2017-12-02T05:14:52.635Z,0
2017-12-02T05:16:01.174Z,0
2017-12-02T05:17:09.706Z,0
2017-12-02T05:18:18.510Z,0
2017-12-02T05:19:27.310Z,0
2017-12-02T05:20:35.844Z,0
2017-12-02T05:21:44.646Z,0
2017-12-02T05:22:53.181Z,0
2017-12-02T05:24:01.988Z,0
2017-12-02T05:25:11.057Z,0
2017-12-02T05:26:19.585Z,0
2017-12-02T05:27:28.120Z,0
2017-12-02T05:28:36.655Z,0
2017-12-02T05:29:45.474Z,0
2017-12-02T05:30:54.274Z,0
2017-12-02T05:32:03.342Z,0
2017-12-02T05:33:12.141Z,0
2017-12-02T05:34:20.953Z,0
2017-12-02T05:35:29.485Z,0
2017-12-02T05:36:38.018Z,0
2017-12-02T05:37:46.819Z,0
2017-12-02T05:38:55.354Z,0
2017-12-02T05:40:04.420Z,0
2017-12-02T05:41:13.228Z,0
2017-12-02T05:42:22.844Z,0
2017-12-02T05:43:31.915Z,0
2017-12-02T05:44:40.451Z,0
2017-12-02T05:45:48.984Z,0
2017-12-02T05:46:57.784Z,0
2017-12-02T05:48:06.588Z,0
2017-12-02T05:49:15.390Z,0
2017-12-02T05:50:24.455Z,0
2017-12-02T05:51:33.257Z,0
2017-12-02T05:52:42.326Z,0
2017-12-02T05:53:51.395Z,0
2017-12-02T05:55:00.195Z,0
2017-12-02T05:56:08.728Z,0
2017-12-02T05:57:17.261Z,0
2017-12-02T05:58:25.796Z,0
2017-12-02T05:59:34.599Z,0
2017-12-02T06:00:43.667Z,0
2017-12-02T06:01:52.466Z,0
2017-12-02T06:03:00.995Z,0
2017-12-02T06:04:10.059Z,0
2017-12-02T06:05:18.856Z,0
2017-12-02T06:06:27.655Z,0
2017-12-02T06:07:36.184Z,0
2017-12-02T06:08:44.991Z,0
2017-12-02T06:09:53.518Z,0
2017-12-02T06:11:02.320Z,0
2017-12-02T06:12:11.120Z,0
2017-12-02T06:13:19.921Z,0
2017-12-02T06:14:28.453Z,0
2017-12-02T06:15:37.521Z,0
2017-12-02T06:16:46.587Z,0
2017-12-02T06:17:55.125Z,0
2017-12-02T06:19:03.926Z,0
2017-12-02T06:20:12.999Z,0
2017-12-02T06:21:21.806Z,0
2017-12-02T06:22:30.981Z,0
2017-12-02T06:23:39.976Z,0
2017-12-02T06:24:49.597Z,0
2017-12-02T06:25:58.288Z,0
2017-12-02T06:27:07.094Z,0
2017-12-02T06:28:15.896Z,0
2017-12-02T06:29:24.693Z,0
2017-12-02T06:30:33.225Z,0
2017-12-02T06:31:42.026Z,0
2017-12-02T06:32:50.705Z,0
2017-12-02T06:33:59.235Z,0
2017-12-02T06:35:07.773Z,0
2017-12-02T06:36:16.305Z,0
2017-12-02T06:37:25.642Z,0
2017-12-02T06:38:34.709Z,0
2017-12-02T06:39:43.779Z,0
2017-12-02T06:40:52.583Z,0
2017-12-02T06:42:01.115Z,0
2017-12-02T06:43:09.650Z,0
2017-12-02T06:44:18.180Z,0
2017-12-02T06:45:26.981Z,0
2017-12-02T06:46:35.512Z,0
2017-12-02T06:47:44.579Z,4
2017-12-02T06:48:53.111Z,0
2017-12-02T06:50:02.470Z,4
2017-12-02T06:51:11.271Z,4
2017-12-02T06:52:20.079Z,4
2017-12-02T06:53:28.608Z,4
2017-12-02T06:54:37.411Z,4
2017-12-02T06:55:46.212Z,4
2017-12-02T06:56:55.012Z,8
2017-12-02T06:58:03.812Z,8
2017-12-02T06:59:12.612Z,8
2017-12-02T07:00:21.145Z,12
2017-12-02T07:01:29.970Z,8
2017-12-02T07:02:38.746Z,12
2017-12-02T07:03:47.281Z,16
2017-12-02T07:04:55.815Z,16
2017-12-02T07:06:04.347Z,20
2017-12-02T07:07:13.422Z,24
2017-12-02T07:08:22.494Z,28
2017-12-02T07:09:31.561Z,32
2017-12-02T07:10:40.096Z,36
2017-12-02T07:11:48.632Z,36
2017-12-02T07:12:57.432Z,44
2017-12-02T07:14:06.237Z,48
2017-12-02T07:15:15.306Z,56
2017-12-02T07:16:23.838Z,60
2017-12-02T07:17:32.367Z,72
2017-12-02T07:18:41.168Z,76
2017-12-02T07:19:50.515Z,84
2017-12-02T07:20:59.050Z,92
2017-12-02T07:22:07.584Z,104
2017-12-02T07:23:16.383Z,112
2017-12-02T07:24:24.915Z,124
2017-12-02T07:25:34.002Z,140
2017-12-02T07:26:42.786Z,152
2017-12-02T07:27:51.856Z,168
2017-12-02T07:29:00.403Z,180
2017-12-02T07:30:09.202Z,192
2017-12-02T07:31:17.735Z,200
2017-12-02T07:32:26.804Z,220
2017-12-02T07:33:36.144Z,232
2017-12-02T07:34:44.678Z,244
2017-12-02T07:35:53.214Z,252
2017-12-02T07:37:02.013Z,264
2017-12-02T07:38:11.078Z,276
2017-12-02T07:39:19.888Z,284
2017-12-02T07:40:28.418Z,288
2017-12-02T07:41:36.949Z,300
2017-12-02T07:42:45.481Z,320
2017-12-02T07:43:54.286Z,340
2017-12-02T07:45:03.095Z,344
2017-12-02T07:46:11.894Z,348
2017-12-02T07:47:21.234Z,336
2017-12-02T07:48:30.301Z,332
2017-12-02T07:49:38.835Z,332
2017-12-02T07:50:47.637Z,356
2017-12-02T07:51:57.464Z,372
2017-12-02T07:53:07.451Z,420
2017-12-02T07:54:16.525Z,460
2017-12-02T07:55:25.058Z,504
2017-12-02T07:56:34.397Z,536
2017-12-02T07:57:43.197Z,572
2017-12-02T07:58:52.261Z,588
2017-12-02T08:00:01.066Z,612
2017-12-02T08:01:09.866Z,640
2017-12-02T08:02:19.203Z,648
2017-12-02T08:03:27.735Z,660
2017-12-02T08:04:36.804Z,644
2017-12-02T08:05:45.868Z,636
2017-12-02T08:06:54.938Z,656
2017-12-02T08:08:03.776Z,704
2017-12-02T08:09:12.576Z,744
2017-12-02T08:10:21.388Z,808
2017-12-02T08:11:30.453Z,852
2017-12-02T08:12:38.984Z,900
2017-12-02T08:13:47.789Z,964
2017-12-02T08:14:56.329Z,1016
2017-12-02T08:16:04.863Z,1052
2017-12-02T08:17:13.930Z,1088
2017-12-02T08:18:22.735Z,1100
2017-12-02T08:19:31.534Z,1116
2017-12-02T08:20:40.067Z,1100
2017-12-02T08:21:49.134Z,1060
2017-12-02T08:22:57.936Z,1084
2017-12-02T08:24:06.737Z,1108
2017-12-02T08:25:15.536Z,1096
2017-12-02T08:26:24.333Z,1080
2017-12-02T08:27:32.869Z,1052
2017-12-02T08:28:42.233Z,1024
2017-12-02T08:29:51.060Z,984
2017-12-02T08:31:00.130Z,960
2017-12-02T08:32:09.196Z,1016
2017-12-02T08:33:17.996Z,1060
2017-12-02T08:34:26.793Z,1060
2017-12-02T08:35:35.595Z,1024
2017-12-02T08:36:44.401Z,1028
2017-12-02T08:37:53.650Z,1108
2017-12-02T08:39:02.763Z,1288
2017-12-02T08:40:11.564Z,1464
2017-12-02T08:41:20.381Z,1492
2017-12-02T08:42:29.181Z,1420
2017-12-02T08:43:38.253Z,1352
2017-12-02T08:44:47.055Z,1372
2017-12-02T08:45:55.854Z,1460
2017-12-02T08:47:04.653Z,1476
2017-12-02T08:48:13.185Z,1456
2017-12-02T08:49:22.252Z,1476
2017-12-02T08:50:31.055Z,1552
2017-12-02T08:51:40.391Z,1636
2017-12-02T08:52:48.926Z,1708
2017-12-02T08:53:57.725Z,1760
2017-12-02T08:55:06.529Z,1792
2017-12-02T08:56:15.605Z,1744
2017-12-02T08:57:24.139Z,1636
2017-12-02T08:58:32.672Z,1644
2017-12-02T08:59:41.472Z,1684
2017-12-02T09:00:50.285Z,1720
2017-12-02T09:01:59.080Z,1712
2017-12-02T09:03:08.151Z,1712
2017-12-02T09:04:16.951Z,1760
2017-12-02T09:05:26.018Z,1808
2017-12-02T09:06:34.550Z,1876
2017-12-02T09:07:43.346Z,1928
2017-12-02T09:08:52.150Z,2012
2017-12-02T09:10:00.950Z,2012
2017-12-02T09:11:10.015Z,2036
2017-12-02T09:12:18.549Z,2072
2017-12-02T09:13:27.350Z,2060
2017-12-02T09:14:36.416Z,2052
2017-12-02T09:15:44.948Z,2036
2017-12-02T09:16:53.752Z,1992
2017-12-02T09:18:02.551Z,1976
2017-12-02T09:19:11.357Z,2024
2017-12-02T09:20:20.164Z,2128
2017-12-02T09:21:28.966Z,2084
2017-12-02T09:22:37.768Z,2076
2017-12-02T09:23:47.098Z,2184
2017-12-02T09:24:56.711Z,2260
2017-12-02T09:26:05.510Z,2248
2017-12-02T09:27:14.040Z,2152
2017-12-02T09:28:22.841Z,2140
2017-12-02T09:29:31.648Z,2132
2017-12-02T09:30:40.180Z,2104
2017-12-02T09:31:48.718Z,2192
2017-12-02T09:32:57.792Z,2304
2017-12-02T09:34:06.327Z,2348
2017-12-02T09:35:14.862Z,2528
2017-12-02T09:36:23.931Z,2492
2017-12-02T09:37:33.141Z,2416
2017-12-02T09:38:42.209Z,2392
2017-12-02T09:39:51.058Z,2348
2017-12-02T09:41:00.124Z,2344
2017-12-02T09:42:08.929Z,2412
2017-12-02T09:43:17.460Z,2512
2017-12-02T09:44:26.265Z,2512
2017-12-02T09:45:35.065Z,2468
2017-12-02T09:46:43.596Z,2304
2017-12-02T09:47:52.399Z,2320
2017-12-02T09:49:01.198Z,2432
2017-12-02T09:50:09.736Z,2464
2017-12-02T09:51:18.810Z,2524
2017-12-02T09:52:28.144Z,2624
2017-12-02T09:53:37.216Z,2580
2017-12-02T09:54:45.752Z,2644
2017-12-02T09:55:55.386Z,2620
2017-12-02T09:57:04.462Z,2684
2017-12-02T09:58:13.264Z,2684
2017-12-02T09:59:22.345Z,2764
2017-12-02T10:00:30.880Z,2732
2017-12-02T10:01:39.948Z,2708
2017-12-02T10:02:48.749Z,2720
2017-12-02T10:03:57.860Z,2740
2017-12-02T10:05:06.671Z,2880
2017-12-02T10:06:15.202Z,3068
2017-12-02T10:07:24.007Z,3004
2017-12-02T10:08:33.080Z,2844
2017-12-02T10:09:41.888Z,2804
2017-12-02T10:10:50.418Z,2928
2017-12-02T10:11:58.951Z,2968
2017-12-02T10:13:07.840Z,3056
2017-12-02T10:14:16.951Z,3044
2017-12-02T10:15:25.495Z,3104
2017-12-02T10:16:34.519Z,3088
2017-12-02T10:17:43.433Z,3068
2017-12-02T10:18:52.234Z,3184
2017-12-02T10:20:01.033Z,3232
2017-12-02T10:21:09.879Z,3116
2017-12-02T10:22:18.374Z,3232
2017-12-02T10:23:26.911Z,3172
2017-12-02T10:24:35.980Z,3192
2017-12-02T10:25:45.052Z,3232
2017-12-02T10:26:53.589Z,3208
2017-12-02T10:28:02.125Z,3112
2017-12-02T10:29:10.984Z,3072
2017-12-02T10:30:19.468Z,3052
2017-12-02T10:31:28.266Z,2968
2017-12-02T10:32:37.339Z,3008
2017-12-02T10:33:46.679Z,3128
2017-12-02T10:34:55.764Z,3292
2017-12-02T10:36:04.565Z,3256
2017-12-02T10:37:13.368Z,3276
2017-12-02T10:38:22.178Z,3344
2017-12-02T10:39:30.713Z,3224
2017-12-02T10:40:39.247Z,3132
2017-12-02T10:41:48.053Z,3200
2017-12-02T10:42:56.854Z,3324
2017-12-02T10:44:05.659Z,3272
2017-12-02T10:45:14.466Z,3332
2017-12-02T10:46:23.272Z,3276
2017-12-02T10:47:31.805Z,3128
2017-12-02T10:48:40.343Z,3124
2017-12-02T10:49:49.160Z,3196
2017-12-02T10:50:58.228Z,3184
2017-12-02T10:52:07.036Z,3052
2017-12-02T10:53:15.840Z,2984
2017-12-02T10:54:24.655Z,2964
2017-12-02T10:55:33.456Z,2916
2017-12-02T10:56:42.526Z,2868
2017-12-02T10:57:51.598Z,2844
2017-12-02T10:59:00.136Z,2968
2017-12-02T11:00:09.238Z,3080
2017-12-02T11:01:17.774Z,3132
2017-12-02T11:02:26.573Z,3232
2017-12-02T11:03:35.381Z,3104
2017-12-02T11:04:44.186Z,3068
2017-12-02T11:05:52.987Z,3060
2017-12-02T11:07:01.521Z,3068
2017-12-02T11:08:10.588Z,3044
2017-12-02T11:09:19.388Z,3068
2017-12-02T11:10:28.193Z,3096
2017-12-02T11:11:36.727Z,3092
2017-12-02T11:12:45.533Z,3232
2017-12-02T11:13:54.330Z,3364
2017-12-02T11:15:03.132Z,3412
2017-12-02T11:16:11.933Z,3424
2017-12-02T11:17:20.469Z,3260
2017-12-02T11:18:29.270Z,3188
2017-12-02T11:19:37.806Z,3212
2017-12-02T11:20:46.877Z,3020
2017-12-02T11:21:55.681Z,3036
2017-12-02T11:23:04.493Z,3136
2017-12-02T11:24:13.021Z,3020
2017-12-02T11:25:21.825Z,2824
2017-12-02T11:26:30.628Z,2712
2017-12-02T11:27:39.164Z,2832
2017-12-02T11:28:47.701Z,2832
2017-12-02T11:29:56.515Z,2732
2017-12-02T11:31:05.344Z,2808
2017-12-02T11:32:13.883Z,2856
2017-12-02T11:33:22.414Z,2884
2017-12-02T11:34:31.210Z,2888
2017-12-02T11:35:40.016Z,2852
2017-12-02T11:36:48.819Z,2920
2017-12-02T11:37:57.624Z,2936
2017-12-02T11:39:06.427Z,2936
2017-12-02T11:40:15.225Z,3020
2017-12-02T11:41:23.762Z,3212
2017-12-02T11:42:32.297Z,3176
2017-12-02T11:43:41.100Z,3032
2017-12-02T11:44:49.635Z,2956
2017-12-02T11:45:58.441Z,3024
2017-12-02T11:47:06.976Z,2988
2017-12-02T11:48:15.779Z,2928
2017-12-02T11:49:24.312Z,2928
2017-12-02T11:50:32.847Z,2880
2017-12-02T11:51:41.381Z,2860
2017-12-02T11:52:50.455Z,2816
2017-12-02T11:53:59.256Z,2764
2017-12-02T11:55:08.066Z,2744
2017-12-02T11:56:16.600Z,2796
2017-12-02T11:57:25.401Z,2764
2017-12-02T11:58:34.211Z,2824
2017-12-02T11:59:42.745Z,2784
2017-12-02T12:00:51.549Z,2872
2017-12-02T12:02:00.347Z,2824
2017-12-02T12:03:09.688Z,2796
2017-12-02T12:04:18.498Z,2732
2017-12-02T12:05:27.566Z,2628
2017-12-02T12:06:36.369Z,2544
2017-12-02T12:07:44.899Z,2440
2017-12-02T12:08:54.235Z,2600
2017-12-02T12:10:03.040Z,2672
2017-12-02T12:11:11.842Z,2648
2017-12-02T12:12:20.643Z,2672
2017-12-02T12:13:29.445Z,2728
2017-12-02T12:14:38.252Z,2736
2017-12-02T12:15:47.366Z,2716
2017-12-02T12:16:56.290Z,2748
2017-12-02T12:18:04.867Z,2824
2017-12-02T12:19:13.988Z,2908
2017-12-02T12:20:22.833Z,2956
2017-12-02T12:21:31.373Z,3112
2017-12-02T12:22:40.187Z,3032
2017-12-02T12:23:48.993Z,2956
2017-12-02T12:24:57.730Z,2844
2017-12-02T12:26:06.541Z,2916
2017-12-02T12:27:15.895Z,3004
2017-12-02T12:28:24.728Z,3196
2017-12-02T12:29:34.076Z,3164
2017-12-02T12:30:42.931Z,2948
2017-12-02T12:31:51.745Z,2684
2017-12-02T12:33:00.823Z,2688
2017-12-02T12:34:09.645Z,2680
2017-12-02T12:35:18.442Z,2768
2017-12-02T12:36:27.041Z,2984
2017-12-02T12:37:36.110Z,3096
2017-12-02T12:38:44.934Z,2992
2017-12-02T12:39:54.003Z,2948
2017-12-02T12:41:02.540Z,2812
2017-12-02T12:42:11.345Z,2824
2017-12-02T12:43:19.881Z,2888
2017-12-02T12:44:28.685Z,2884
2017-12-02T12:45:37.800Z,2728
2017-12-02T12:46:46.605Z,2648
2017-12-02T12:47:55.672Z,2804
2017-12-02T12:49:04.477Z,2648
2017-12-02T12:50:13.011Z,2416
2017-12-02T12:51:21.811Z,2412
2017-12-02T12:52:30.346Z,2528
2017-12-02T12:53:39.418Z,2372
2017-12-02T12:54:48.366Z,2260
2017-12-02T12:55:56.906Z,2156
2017-12-02T12:57:05.445Z,2072
2017-12-02T12:58:14.774Z,2156
2017-12-02T12:59:23.308Z,2228
2017-12-02T13:00:32.110Z,2172
2017-12-02T13:01:41.450Z,2160
2017-12-02T13:02:49.982Z,2204
2017-12-02T13:03:58.785Z,2144
2017-12-02T13:05:08.824Z,2072
2017-12-02T13:06:17.895Z,2056
2017-12-02T13:07:26.697Z,1980
2017-12-02T13:08:35.505Z,2068
2017-12-02T13:09:44.300Z,2068
2017-12-02T13:10:53.637Z,1992
2017-12-02T13:12:02.981Z,2124
2017-12-02T13:13:12.314Z,2164
2017-12-02T13:14:20.848Z,2176
2017-12-02T13:15:29.649Z,2088
2017-12-02T13:16:38.185Z,2208
2017-12-02T13:17:47.535Z,2236
2017-12-02T13:18:56.605Z,2124
2017-12-02T13:20:05.939Z,2044
2017-12-02T13:21:14.473Z,1932
2017-12-02T13:22:23.008Z,1944
2017-12-02T13:23:31.548Z,1856
2017-12-02T13:24:40.619Z,1812
2017-12-02T13:25:49.503Z,1800
2017-12-02T13:26:58.570Z,1744
2017-12-02T13:28:07.638Z,1768
2017-12-02T13:29:16.710Z,1692
2017-12-02T13:30:25.511Z,1548
2017-12-02T13:31:34.046Z,1552
2017-12-02T13:32:42.582Z,1644
2017-12-02T13:33:51.648Z,1636
2017-12-02T13:35:00.183Z,1656
2017-12-02T13:36:08.991Z,1680
2017-12-02T13:37:17.521Z,1612
2017-12-02T13:38:26.061Z,1620
2017-12-02T13:39:34.598Z,1500
2017-12-02T13:40:43.405Z,1500
2017-12-02T13:41:52.207Z,1536
2017-12-02T13:43:01.017Z,1508
2017-12-02T13:44:09.824Z,1440
2017-12-02T13:45:18.622Z,1512
2017-12-02T13:46:27.694Z,1528
2017-12-02T13:47:36.500Z,1500
2017-12-02T13:48:45.577Z,1392
2017-12-02T13:49:54.112Z,1364
2017-12-02T13:51:03.183Z,1356
2017-12-02T13:52:11.991Z,1336
2017-12-02T13:53:20.526Z,1324
2017-12-02T13:54:29.330Z,1348
2017-12-02T13:55:38.456Z,1396
2017-12-02T13:56:47.528Z,1380
2017-12-02T13:57:56.333Z,1328
2017-12-02T13:59:05.140Z,1272
2017-12-02T14:00:13.942Z,1264
2017-12-02T14:01:22.749Z,1200
2017-12-02T14:02:31.552Z,1148
2017-12-02T14:03:41.395Z,1152
2017-12-02T14:04:50.195Z,1132
2017-12-02T14:05:58.995Z,1160
2017-12-02T14:07:07.802Z,1132
2017-12-02T14:08:16.337Z,1132
2017-12-02T14:09:25.415Z,1180
2017-12-02T14:10:34.219Z,1152
2017-12-02T14:11:43.023Z,1108
2017-12-02T14:12:51.824Z,1044
2017-12-02T14:14:00.623Z,1056
2017-12-02T14:15:09.425Z,1008
2017-12-02T14:16:17.957Z,988
2017-12-02T14:17:26.764Z,940
2017-12-02T14:18:36.097Z,872
2017-12-02T14:19:44.631Z,844
2017-12-02T14:20:53.698Z,828
2017-12-02T14:22:02.228Z,836
2017-12-02T14:23:10.766Z,896
2017-12-02T14:24:19.572Z,944
2017-12-02T14:25:28.104Z,928
2017-12-02T14:26:37.182Z,864
2017-12-02T14:27:45.984Z,804
2017-12-02T14:28:55.057Z,776
2017-12-02T14:30:03.591Z,740
2017-12-02T14:31:12.391Z,720
2017-12-02T14:32:21.467Z,692
2017-12-02T14:33:30.265Z,660
2017-12-02T14:34:39.337Z,612
2017-12-02T14:35:48.136Z,596
2017-12-02T14:36:57.209Z,588
2017-12-02T14:38:05.743Z,580
2017-12-02T14:39:14.829Z,560
2017-12-02T14:40:23.898Z,532
2017-12-02T14:41:32.697Z,504
2017-12-02T14:42:41.502Z,492
2017-12-02T14:43:50.579Z,476
2017-12-02T14:44:59.378Z,480
2017-12-02T14:46:07.917Z,492
2017-12-02T14:47:16.460Z,484
2017-12-02T14:48:25.529Z,464
2017-12-02T14:49:34.065Z,448
2017-12-02T14:50:42.868Z,444
2017-12-02T14:51:51.668Z,428
2017-12-02T14:53:00.471Z,400
2017-12-02T14:54:09.008Z,408
2017-12-02T14:55:17.542Z,384
2017-12-02T14:56:26.626Z,368
2017-12-02T14:57:35.698Z,376
2017-12-02T14:58:44.767Z,360
2017-12-02T14:59:53.568Z,368
2017-12-02T15:01:02.104Z,376
2017-12-02T15:02:10.906Z,380
2017-12-02T15:03:19.981Z,344
2017-12-02T15:04:28.514Z,320
2017-12-02T15:05:37.050Z,308
2017-12-02T15:06:45.847Z,292
2017-12-02T15:07:54.382Z,280
2017-12-02T15:09:03.183Z,276
2017-12-02T15:10:11.808Z,264
2017-12-02T15:11:20.633Z,252
2017-12-02T15:12:29.167Z,240
2017-12-02T15:13:38.239Z,228
2017-12-02T15:14:46.849Z,224
2017-12-02T15:15:55.385Z,216
2017-12-02T15:17:04.452Z,132
2017-12-02T15:18:13.258Z,116
2017-12-02T15:19:22.062Z,108
2017-12-02T15:20:30.862Z,108
2017-12-02T15:21:39.981Z,104
2017-12-02T15:22:48.518Z,100
2017-12-02T15:23:57.055Z,92
2017-12-02T15:25:05.866Z,84
2017-12-02T15:26:14.676Z,76
2017-12-02T15:27:23.514Z,72
2017-12-02T15:28:32.856Z,64
2017-12-02T15:29:42.134Z,60
2017-12-02T15:30:50.665Z,52
2017-12-02T15:31:59.468Z,48
2017-12-02T15:33:08.003Z,40
2017-12-02T15:34:16.850Z,36
2017-12-02T15:35:25.653Z,28
2017-12-02T15:36:34.455Z,28
2017-12-02T15:37:42.988Z,24
2017-12-02T15:38:52.069Z,24
2017-12-02T15:40:00.605Z,20
2017-12-02T15:41:09.407Z,20
2017-12-02T15:42:18.212Z,20
2017-12-02T15:43:26.745Z,16
2017-12-02T15:44:35.281Z,12
2017-12-02T15:45:43.846Z,12
2017-12-02T15:46:53.216Z,8
2017-12-02T15:48:02.017Z,8
2017-12-02T15:49:10.551Z,4
2017-12-02T15:50:19.620Z,4
2017-12-02T15:51:28.151Z,4
2017-12-02T15:52:36.953Z,4
2017-12-02T15:53:45.487Z,0
2017-12-02T15:54:54.554Z,4
2017-12-02T15:56:03.355Z,0
2017-12-02T15:57:11.888Z,4
2017-12-02T15:58:20.425Z,4
2017-12-02T15:59:28.962Z,0
2017-12-02T16:00:38.028Z,0
2017-12-02T16:01:46.832Z,0
2017-12-02T16:02:55.370Z,0
2017-12-02T16:04:04.176Z,0
2017-12-02T16:05:13.515Z,0
2017-12-02T16:06:22.054Z,0
2017-12-02T16:07:31.123Z,0